sensor_id;sensor_type;location;lat;lon;timestamp;pressure;altitude;pressure_sealevel;temperature;humidity
69982;BME280;57319;56.274;43.980;2024-02-23T00:00:34;100741.59;;;-7.82;94.89
69982;BME280;57319;56.274;43.980;2024-02-23T00:03:00;100742.00;;;-7.88;94.45
69982;BME280;57319;56.274;43.980;2024-02-23T00:05:25;100747.47;;;-7.81;95.32
69982;BME280;57319;56.274;43.980;2024-02-23T00:07:51;100744.63;;;-7.86;94.59
69982;BME280;57319;56.274;43.980;2024-02-23T00:10:16;100741.94;;;-7.99;94.10
69982;BME280;57319;56.274;43.980;2024-02-23T00:12:43;100744.91;;;-7.93;94.17
69982;BME280;57319;56.274;43.980;2024-02-23T00:15:10;100737.94;;;-7.97;94.14
69982;BME280;57319;56.274;43.980;2024-02-23T00:17:36;100733.03;;;-7.96;93.96
69982;BME280;57319;56.274;43.980;2024-02-23T00:20:01;100739.38;;;-7.89;95.27
69982;BME280;57319;56.274;43.980;2024-02-23T00:22:27;100741.47;;;-8.06;93.20
69982;BME280;57319;56.274;43.980;2024-02-23T00:24:53;100733.16;;;-7.94;94.91
69982;BME280;57319;56.274;43.980;2024-02-23T00:27:19;100739.38;;;-7.89;95.29
69982;BME280;57319;56.274;43.980;2024-02-23T00:29:44;100734.97;;;-8.04;94.28
69982;BME280;57319;56.274;43.980;2024-02-23T00:32:10;100736.81;;;-8.01;94.94
69982;BME280;57319;56.274;43.980;2024-02-23T00:34:36;100733.56;;;-8.00;95.21
69982;BME280;57319;56.274;43.980;2024-02-23T00:37:02;100733.50;;;-8.12;93.97
69982;BME280;57319;56.274;43.980;2024-02-23T00:39:28;100733.94;;;-7.95;95.46
69982;BME280;57319;56.274;43.980;2024-02-23T00:41:54;100732.09;;;-8.08;94.25
69982;BME280;57319;56.274;43.980;2024-02-23T00:44:20;100729.97;;;-8.04;94.76
69982;BME280;57319;56.274;43.980;2024-02-23T00:46:45;100730.50;;;-8.18;93.17
69982;BME280;57319;56.274;43.980;2024-02-23T00:49:11;100738.31;;;-8.03;95.12
69982;BME280;57319;56.274;43.980;2024-02-23T00:51:37;100742.50;;;-8.14;94.69
69982;BME280;57319;56.274;43.980;2024-02-23T00:54:02;100736.22;;;-8.09;95.16
69982;BME280;57319;56.274;43.980;2024-02-23T00:56:28;100743.31;;;-8.03;95.59
69982;BME280;57319;56.274;43.980;2024-02-23T00:58:53;100738.97;;;-8.06;95.64
69982;BME280;57319;56.274;43.980;2024-02-23T01:01:19;100742.19;;;-8.07;95.74
69982;BME280;57319;56.274;43.980;2024-02-23T01:03:45;100742.31;;;-8.05;95.34
69982;BME280;57319;56.274;43.980;2024-02-23T01:06:10;100741.47;;;-8.06;95.77
69982;BME280;57319;56.274;43.980;2024-02-23T01:08:36;100754.28;;;-8.33;93.27
69982;BME280;57319;56.274;43.980;2024-02-23T01:11:01;100751.75;;;-8.13;95.17
69982;BME280;57319;56.274;43.980;2024-02-23T01:13:27;100746.91;;;-8.32;93.64
69982;BME280;57319;56.274;43.980;2024-02-23T01:15:53;100736.13;;;-8.10;94.77
69982;BME280;57319;56.274;43.980;2024-02-23T01:18:19;100742.09;;;-8.08;94.84
69982;BME280;57319;56.274;43.980;2024-02-23T01:20:45;100742.38;;;-8.15;94.09
69982;BME280;57319;56.274;43.980;2024-02-23T01:23:11;100739.34;;;-8.11;93.72
69982;BME280;57319;56.274;43.980;2024-02-23T01:25:37;100747.09;;;-8.08;94.84
69982;BME280;57319;56.274;43.980;2024-02-23T01:28:03;100736.47;;;-8.06;95.06
69982;BME280;57319;56.274;43.980;2024-02-23T01:30:29;100734.97;;;-8.04;95.36
69982;BME280;57319;56.274;43.980;2024-02-23T01:32:54;100732.47;;;-8.04;95.56
69982;BME280;57319;56.274;43.980;2024-02-23T01:35:20;100726.63;;;-8.14;94.66
69982;BME280;57319;56.274;43.980;2024-02-23T01:37:46;100728.06;;;-8.28;93.95
69982;BME280;57319;56.274;43.980;2024-02-23T01:40:11;100729.94;;;-8.36;93.23
69982;BME280;57319;56.274;43.980;2024-02-23T01:42:38;100736.50;;;-8.16;94.77
69982;BME280;57319;56.274;43.980;2024-02-23T01:45:04;100732.25;;;-8.17;95.03
69982;BME280;57319;56.274;43.980;2024-02-23T01:47:31;100732.41;;;-8.26;94.34
69982;BME280;57319;56.274;43.980;2024-02-23T01:49:58;100729.84;;;-8.38;93.50
69982;BME280;57319;56.274;43.980;2024-02-23T01:52:25;100736.75;;;-8.23;94.52
69982;BME280;57319;56.274;43.980;2024-02-23T01:54:51;100737.66;;;-8.23;94.83
69982;BME280;57319;56.274;43.980;2024-02-23T01:57:17;100739.75;;;-8.17;95.38
69982;BME280;57319;56.274;43.980;2024-02-23T01:59:43;100736.66;;;-8.25;95.13
69982;BME280;57319;56.274;43.980;2024-02-23T02:02:09;100740.44;;;-8.40;94.23
69982;BME280;57319;56.274;43.980;2024-02-23T02:04:35;100746.91;;;-8.32;94.81
69982;BME280;57319;56.274;43.980;2024-02-23T02:07:01;100749.50;;;-8.53;93.35
69982;BME280;57319;56.274;43.980;2024-02-23T02:09:27;100742.94;;;-8.40;94.80
69982;BME280;57319;56.274;43.980;2024-02-23T02:11:53;100747.81;;;-8.42;94.83
69982;BME280;57319;56.274;43.980;2024-02-23T02:14:19;100751.38;;;-8.50;94.42
69982;BME280;57319;56.274;43.980;2024-02-23T02:16:45;100755.75;;;-8.47;95.19
69982;BME280;57319;56.274;43.980;2024-02-23T02:19:12;100765.63;;;-8.49;94.99
69982;BME280;57319;56.274;43.980;2024-02-23T02:21:38;100764.53;;;-8.94;92.85
69982;BME280;57319;56.274;43.980;2024-02-23T02:24:05;100765.75;;;-8.68;93.68
69982;BME280;57319;56.274;43.980;2024-02-23T02:26:31;100758.25;;;-8.47;94.68
69982;BME280;57319;56.274;43.980;2024-02-23T02:28:57;100763.88;;;-8.71;93.06
69982;BME280;57319;56.274;43.980;2024-02-23T02:31:23;100767.88;;;-8.62;93.93
69982;BME280;57319;56.274;43.980;2024-02-23T02:33:48;100762.50;;;-8.67;93.75
69982;BME280;57319;56.274;43.980;2024-02-23T02:36:14;100761.34;;;-8.50;95.28
69982;BME280;57319;56.274;43.980;2024-02-23T02:38:40;100760.09;;;-8.45;95.47
69982;BME280;57319;56.274;43.980;2024-02-23T02:41:05;100766.34;;;-8.50;95.08
69982;BME280;57319;56.274;43.980;2024-02-23T02:43:32;100761.75;;;-8.56;94.42
69982;BME280;57319;56.274;43.980;2024-02-23T02:45:58;100759.84;;;-8.48;95.33
69982;BME280;57319;56.274;43.980;2024-02-23T02:48:24;100767.34;;;-8.48;95.39
69982;BME280;57319;56.274;43.980;2024-02-23T02:50:50;100769.25;;;-8.76;93.52
69982;BME280;57319;56.274;43.980;2024-02-23T02:53:17;100768.75;;;-8.72;93.57
69982;BME280;57319;56.274;43.980;2024-02-23T02:55:43;100763.75;;;-8.51;95.17
69982;BME280;57319;56.274;43.980;2024-02-23T02:58:11;100761.97;;;-8.53;94.92
69982;BME280;57319;56.274;43.980;2024-02-23T03:00:37;100768.63;;;-8.53;95.10
69982;BME280;57319;56.274;43.980;2024-02-23T03:03:03;100769.84;;;-8.48;95.93
69982;BME280;57319;56.274;43.980;2024-02-23T03:05:29;100774.13;;;-8.57;95.21
69982;BME280;57319;56.274;43.980;2024-02-23T03:07:54;100769.75;;;-8.60;94.55
69982;BME280;57319;56.274;43.980;2024-02-23T03:10:20;100776.59;;;-8.67;94.06
69982;BME280;57319;56.274;43.980;2024-02-23T03:12:46;100781.97;;;-8.53;94.93
69982;BME280;57319;56.274;43.980;2024-02-23T03:15:12;100779.22;;;-8.56;94.92
69982;BME280;57319;56.274;43.980;2024-02-23T03:17:37;100782.72;;;-8.64;94.26
69982;BME280;57319;56.274;43.980;2024-02-23T03:20:04;100782.22;;;-8.70;94.22
69982;BME280;57319;56.274;43.980;2024-02-23T03:22:37;100787.81;;;-8.52;95.59
69982;BME280;57319;56.274;43.980;2024-02-23T03:25:04;100785.31;;;-8.52;95.81
69982;BME280;57319;56.274;43.980;2024-02-23T03:27:35;100782.59;;;-8.55;95.78
69982;BME280;57319;56.274;43.980;2024-02-23T03:30:03;100790.31;;;-8.52;95.85
69982;BME280;57319;56.274;43.980;2024-02-23T03:32:30;100776.72;;;-8.66;94.33
69982;BME280;57319;56.274;43.980;2024-02-23T03:35:06;100783.22;;;-8.58;95.23
69982;BME280;57319;56.274;43.980;2024-02-23T03:37:32;100777.81;;;-8.52;95.66
69982;BME280;57319;56.274;43.980;2024-02-23T03:39:58;100780.59;;;-8.59;95.39
69982;BME280;57319;56.274;43.980;2024-02-23T03:42:25;100781.97;;;-8.53;95.47
69982;BME280;57319;56.274;43.980;2024-02-23T03:44:51;100780.34;;;-8.62;95.04
69982;BME280;57319;56.274;43.980;2024-02-23T03:47:17;100779.22;;;-8.66;94.75
69982;BME280;57319;56.274;43.980;2024-02-23T03:49:43;100786.72;;;-8.66;94.45
69982;BME280;57319;56.274;43.980;2024-02-23T03:52:08;100785.59;;;-8.59;95.26
69982;BME280;57319;56.274;43.980;2024-02-23T03:54:34;100786.09;;;-8.84;93.50
69982;BME280;57319;56.274;43.980;2024-02-23T03:57:00;100790.72;;;-8.68;94.47
69982;BME280;57319;56.274;43.980;2024-02-23T03:59:25;100804.31;;;-8.54;95.05
69982;BME280;57319;56.274;43.980;2024-02-23T04:01:51;100800.41;;;-8.50;95.43
69982;BME280;57319;56.274;43.980;2024-02-23T04:04:17;100804.06;;;-8.57;95.18
69982;BME280;57319;56.274;43.980;2024-02-23T04:06:43;100796.47;;;-8.69;94.26
69982;BME280;57319;56.274;43.980;2024-02-23T04:09:08;100801.81;;;-8.64;94.37
69982;BME280;57319;56.274;43.980;2024-02-23T04:11:34;100802.69;;;-8.54;94.82
69982;BME280;57319;56.274;43.980;2024-02-23T04:14:00;100800.69;;;-8.47;95.85
69982;BME280;57319;56.274;43.980;2024-02-23T04:16:26;100805.81;;;-8.46;95.60
69982;BME280;57319;56.274;43.980;2024-02-23T04:18:55;100803.50;;;-8.43;95.63
69982;BME280;57319;56.274;43.980;2024-02-23T04:21:21;100809.25;;;-8.44;95.84
69982;BME280;57319;56.274;43.980;2024-02-23T04:23:47;100803.38;;;-8.44;95.36
69982;BME280;57319;56.274;43.980;2024-02-23T04:26:14;100804.16;;;-8.45;94.90
69982;BME280;57319;56.274;43.980;2024-02-23T04:28:41;100809.53;;;-8.51;93.76
69982;BME280;57319;56.274;43.980;2024-02-23T04:31:09;100813.31;;;-8.66;92.15
69982;BME280;57319;56.274;43.980;2024-02-23T04:33:36;100818.00;;;-8.39;93.58
69982;BME280;57319;56.274;43.980;2024-02-23T04:36:02;100812.47;;;-8.35;93.05
69982;BME280;57319;56.274;43.980;2024-02-23T04:38:29;100822.81;;;-8.30;92.93
69982;BME280;57319;56.274;43.980;2024-02-23T04:40:55;100820.69;;;-8.15;94.20
69982;BME280;57319;56.274;43.980;2024-02-23T04:43:23;100811.94;;;-8.10;94.18
69982;BME280;57319;56.274;43.980;2024-02-23T04:45:49;100818.31;;;-8.13;94.54
69982;BME280;57319;56.274;43.980;2024-02-23T04:48:15;100823.44;;;-8.12;93.53
69982;BME280;57319;56.274;43.980;2024-02-23T04:50:41;100819.44;;;-8.10;93.30
69982;BME280;57319;56.274;43.980;2024-02-23T04:53:06;100818.44;;;-8.12;92.68
69982;BME280;57319;56.274;43.980;2024-02-23T04:55:33;100818.91;;;-7.95;93.95
69982;BME280;57319;56.274;43.980;2024-02-23T04:57:58;100823.28;;;-8.03;92.05
69982;BME280;57319;56.274;43.980;2024-02-23T05:00:24;100820.63;;;-7.94;93.06
69982;BME280;57319;56.274;43.980;2024-02-23T05:02:54;100822.47;;;-7.81;93.42
69982;BME280;57319;56.274;43.980;2024-02-23T05:05:19;100833.22;;;-7.82;92.87
69982;BME280;57319;56.274;43.980;2024-02-23T05:07:47;100836.56;;;-7.72;93.81
69982;BME280;57319;56.274;43.980;2024-02-23T05:10:13;100826.16;;;-7.66;93.83
69982;BME280;57319;56.274;43.980;2024-02-23T05:12:38;100830.00;;;-7.59;94.01
69982;BME280;57319;56.274;43.980;2024-02-23T05:15:04;100830.56;;;-7.52;93.86
69982;BME280;57319;56.274;43.980;2024-02-23T05:17:30;100833.25;;;-7.60;92.08
69982;BME280;57319;56.274;43.980;2024-02-23T05:19:55;100829.00;;;-7.61;91.14
69982;BME280;57319;56.274;43.980;2024-02-23T05:22:21;100835.22;;;-7.46;92.67
69982;BME280;57319;56.274;43.980;2024-02-23T05:24:47;100831.06;;;-7.45;92.13
69982;BME280;57319;56.274;43.980;2024-02-23T05:27:12;100842.31;;;-7.40;92.41
69982;BME280;57319;56.274;43.980;2024-02-23T05:29:38;100847.56;;;-7.47;91.79
69982;BME280;57319;56.274;43.980;2024-02-23T05:32:04;100838.22;;;-7.50;90.64
69982;BME280;57319;56.274;43.980;2024-02-23T05:34:29;100833.59;;;-7.56;89.80
69982;BME280;57319;56.274;43.980;2024-02-23T05:36:55;100833.50;;;-7.35;91.39
69982;BME280;57319;56.274;43.980;2024-02-23T05:39:21;100839.91;;;-7.39;91.46
69982;BME280;57319;56.274;43.980;2024-02-23T05:41:47;100836.69;;;-7.48;89.96
69982;BME280;57319;56.274;43.980;2024-02-23T05:44:12;100826.47;;;-7.29;91.41
69982;BME280;57319;56.274;43.980;2024-02-23T05:46:38;100832.91;;;-7.65;88.47
69982;BME280;57319;56.274;43.980;2024-02-23T05:49:04;100837.72;;;-7.46;88.90
69982;BME280;57319;56.274;43.980;2024-02-23T05:51:30;100834.22;;;-7.26;90.97
69982;BME280;57319;56.274;43.980;2024-02-23T05:53:56;100836.78;;;-7.14;91.51
69982;BME280;57319;56.274;43.980;2024-02-23T05:56:23;100842.53;;;-7.15;90.16
69982;BME280;57319;56.274;43.980;2024-02-23T05:58:51;100845.38;;;-7.10;91.05
69982;BME280;57319;56.274;43.980;2024-02-23T06:01:18;100838.56;;;-7.01;91.29
69982;BME280;57319;56.274;43.980;2024-02-23T06:03:44;100838.56;;;-7.01;90.82
69982;BME280;57319;56.274;43.980;2024-02-23T06:06:10;100846.97;;;-7.01;91.14
69982;BME280;57319;56.274;43.980;2024-02-23T06:08:36;100853.13;;;-7.29;88.22
69982;BME280;57319;56.274;43.980;2024-02-23T06:11:02;100850.63;;;-7.07;90.50
69982;BME280;57319;56.274;43.980;2024-02-23T06:13:32;100851.03;;;-7.13;89.54
69982;BME280;57319;56.274;43.980;2024-02-23T06:15:59;100866.59;;;-7.17;89.26
69982;BME280;57319;56.274;43.980;2024-02-23T06:18:24;100866.59;;;-7.17;88.45
69982;BME280;57319;56.274;43.980;2024-02-23T06:20:50;100865.06;;;-7.15;87.33
69982;BME280;57319;56.274;43.980;2024-02-23T06:23:16;100867.78;;;-7.12;88.60
69982;BME280;57319;56.274;43.980;2024-02-23T06:25:42;100864.13;;;-7.05;88.65
69982;BME280;57319;56.274;43.980;2024-02-23T06:28:09;100857.94;;;-6.99;88.94
69982;BME280;57319;56.274;43.980;2024-02-23T06:30:34;100862.69;;;-6.79;89.65
69982;BME280;57319;56.274;43.980;2024-02-23T06:33:00;100866.97;;;-6.78;88.22
69982;BME280;57319;56.274;43.980;2024-02-23T06:35:26;100865.00;;;-7.05;86.18
69982;BME280;57319;56.274;43.980;2024-02-23T06:37:51;100868.94;;;-6.74;87.46
69982;BME280;57319;56.274;43.980;2024-02-23T06:40:17;100875.13;;;-6.47;88.95
69982;BME280;57319;56.274;43.980;2024-02-23T06:42:43;100873.69;;;-6.43;89.30
69982;BME280;57319;56.274;43.980;2024-02-23T06:45:09;100879.28;;;-6.36;90.16
69982;BME280;57319;56.274;43.980;2024-02-23T06:47:35;100878.16;;;-6.39;89.18
69982;BME280;57319;56.274;43.980;2024-02-23T06:50:01;100878.16;;;-6.39;88.09
69982;BME280;57319;56.274;43.980;2024-02-23T06:52:29;100885.94;;;-6.70;83.92
69982;BME280;57319;56.274;43.980;2024-02-23T06:54:55;100881.56;;;-6.39;88.20
69982;BME280;57319;56.274;43.980;2024-02-23T06:57:20;100882.78;;;-6.22;88.51
69982;BME280;57319;56.274;43.980;2024-02-23T06:59:48;100884.97;;;-6.15;88.67
69982;BME280;57319;56.274;43.980;2024-02-23T07:02:13;100892.59;;;-6.13;86.69
69982;BME280;57319;56.274;43.980;2024-02-23T07:04:39;100891.63;;;-6.15;86.66
69982;BME280;57319;56.274;43.980;2024-02-23T07:07:04;100897.38;;;-6.16;85.60
69982;BME280;57319;56.274;43.980;2024-02-23T07:09:33;100895.78;;;-6.04;86.85
69982;BME280;57319;56.274;43.980;2024-02-23T07:12:00;100899.56;;;-6.21;84.20
69982;BME280;57319;56.274;43.980;2024-02-23T07:14:25;100893.47;;;-6.01;87.66
69982;BME280;57319;56.274;43.980;2024-02-23T07:16:51;100891.50;;;-6.05;86.70
69982;BME280;57319;56.274;43.980;2024-02-23T07:19:19;100896.53;;;-5.81;87.56
69982;BME280;57319;56.274;43.980;2024-02-23T07:21:46;100891.63;;;-5.80;86.84
69982;BME280;57319;56.274;43.980;2024-02-23T07:24:12;100895.22;;;-5.64;86.13
69982;BME280;57319;56.274;43.980;2024-02-23T07:26:38;100900.34;;;-5.51;86.37
69982;BME280;57319;56.274;43.980;2024-02-23T07:29:04;100909.47;;;-5.51;83.96
69982;BME280;57319;56.274;43.980;2024-02-23T07:31:29;100904.78;;;-5.47;84.72
69982;BME280;57319;56.274;43.980;2024-02-23T07:33:55;100905.97;;;-5.41;84.60
69982;BME280;57319;56.274;43.980;2024-02-23T07:36:21;100906.97;;;-5.51;83.02
69982;BME280;57319;56.274;43.980;2024-02-23T07:38:47;100902.25;;;-5.35;84.99
69982;BME280;57319;56.274;43.980;2024-02-23T07:41:14;100905.00;;;-5.32;84.39
69982;BME280;57319;56.274;43.980;2024-02-23T07:43:40;100905.69;;;-5.70;80.75
69982;BME280;57319;56.274;43.980;2024-02-23T07:46:06;100899.97;;;-5.32;82.84
69982;BME280;57319;56.274;43.980;2024-02-23T07:48:35;100902.13;;;-5.24;83.48
69982;BME280;57319;56.274;43.980;2024-02-23T07:51:01;100896.22;;;-5.13;84.19
69982;BME280;57319;56.274;43.980;2024-02-23T07:53:27;100902.91;;;-5.25;82.40
69982;BME280;57319;56.274;43.980;2024-02-23T07:55:53;100895.66;;;-5.09;85.19
69982;BME280;57319;56.274;43.980;2024-02-23T07:58:19;100892.00;;;-5.26;82.53
69982;BME280;57319;56.274;43.980;2024-02-23T08:00:44;100891.81;;;-5.04;85.58
69982;BME280;57319;56.274;43.980;2024-02-23T08:03:10;100891.63;;;-5.07;84.07
69982;BME280;57319;56.274;43.980;2024-02-23T08:05:36;100897.25;;;-4.98;84.54
69982;BME280;57319;56.274;43.980;2024-02-23T08:08:02;100898.69;;;-5.01;82.25
69982;BME280;57319;56.274;43.980;2024-02-23T08:10:28;100908.78;;;-4.88;81.04
69982;BME280;57319;56.274;43.980;2024-02-23T08:12:53;100909.78;;;-4.86;82.27
69982;BME280;57319;56.274;43.980;2024-02-23T08:15:19;100908.19;;;-4.72;81.65
69982;BME280;57319;56.274;43.980;2024-02-23T08:17:45;100909.38;;;-4.67;81.26
69982;BME280;57319;56.274;43.980;2024-02-23T08:20:12;100909.06;;;-4.46;83.30
69982;BME280;57319;56.274;43.980;2024-02-23T08:22:37;100912.69;;;-4.80;78.58
69982;BME280;57319;56.274;43.980;2024-02-23T08:25:03;100913.19;;;-5.34;77.01
69982;BME280;57319;56.274;43.980;2024-02-23T08:27:29;100919.16;;;-4.83;82.09
69982;BME280;57319;56.274;43.980;2024-02-23T08:29:55;100911.16;;;-4.52;83.00
69982;BME280;57319;56.274;43.980;2024-02-23T08:32:21;100914.72;;;-4.87;78.73
69982;BME280;57319;56.274;43.980;2024-02-23T08:34:46;100925.00;;;-4.46;80.90
69982;BME280;57319;56.274;43.980;2024-02-23T08:37:12;100917.22;;;-4.37;81.09
69982;BME280;57319;56.274;43.980;2024-02-23T08:39:38;100922.50;;;-4.20;80.91
69982;BME280;57319;56.274;43.980;2024-02-23T08:42:04;100915.13;;;-4.17;81.69
69982;BME280;57319;56.274;43.980;2024-02-23T08:44:29;100913.94;;;-4.61;76.34
69982;BME280;57319;56.274;43.980;2024-02-23T08:46:55;100926.03;;;-4.81;77.30
69982;BME280;57319;56.274;43.980;2024-02-23T08:49:21;100918.50;;;-4.55;81.87
69982;BME280;57319;56.274;43.980;2024-02-23T08:51:46;100919.03;;;-4.48;82.54
69982;BME280;57319;56.274;43.980;2024-02-23T08:54:12;100910.69;;;-4.47;82.04
69982;BME280;57319;56.274;43.980;2024-02-23T08:56:38;100916.19;;;-4.14;83.09
69982;BME280;57319;56.274;43.980;2024-02-23T08:59:04;100910.31;;;-4.53;77.90
69982;BME280;57319;56.274;43.980;2024-02-23T09:01:30;100915.44;;;-4.13;78.99
69982;BME280;57319;56.274;43.980;2024-02-23T09:03:56;100910.34;;;-3.74;80.49
69982;BME280;57319;56.274;43.980;2024-02-23T09:06:21;100916.66;;;-4.19;75.41
69982;BME280;57319;56.274;43.980;2024-02-23T09:08:47;100913.88;;;-4.24;76.07
69982;BME280;57319;56.274;43.980;2024-02-23T09:11:12;100908.88;;;-4.11;78.97
69982;BME280;57319;56.274;43.980;2024-02-23T09:13:40;100915.16;;;-3.90;80.69
69982;BME280;57319;56.274;43.980;2024-02-23T09:16:07;100911.13;;;-3.88;80.60
69982;BME280;57319;56.274;43.980;2024-02-23T09:18:35;100913.44;;;-4.05;76.46
69982;BME280;57319;56.274;43.980;2024-02-23T09:21:00;100909.56;;;-3.86;79.30
69982;BME280;57319;56.274;43.980;2024-02-23T09:23:26;100912.25;;;-4.10;75.34
69982;BME280;57319;56.274;43.980;2024-02-23T09:25:52;100923.00;;;-3.99;76.70
69982;BME280;57319;56.274;43.980;2024-02-23T09:28:17;100918.88;;;-3.72;79.42
69982;BME280;57319;56.274;43.980;2024-02-23T09:30:43;100928.63;;;-3.77;76.05
69982;BME280;57319;56.274;43.980;2024-02-23T09:33:10;100929.50;;;-3.49;79.60
69982;BME280;57319;56.274;43.980;2024-02-23T09:35:35;100925.25;;;-3.64;79.25
69982;BME280;57319;56.274;43.980;2024-02-23T09:38:01;100921.91;;;-4.16;75.51
69982;BME280;57319;56.274;43.980;2024-02-23T09:40:28;100919.28;;;-4.18;76.69
69982;BME280;57319;56.274;43.980;2024-02-23T09:42:57;100932.84;;;-4.16;77.70
69982;BME280;57319;56.274;43.980;2024-02-23T09:45:25;100938.97;;;-3.99;77.59
69982;BME280;57319;56.274;43.980;2024-02-23T09:47:53;100939.84;;;-3.85;79.16
69982;BME280;57319;56.274;43.980;2024-02-23T09:50:22;100945.94;;;-4.08;77.11
69982;BME280;57319;56.274;43.980;2024-02-23T09:52:48;100950.38;;;-3.90;79.36
69982;BME280;57319;56.274;43.980;2024-02-23T09:55:16;100948.47;;;-3.81;79.67
69982;BME280;57319;56.274;43.980;2024-02-23T09:57:45;100937.34;;;-3.71;79.68
69982;BME280;57319;56.274;43.980;2024-02-23T10:00:16;100944.53;;;-3.78;75.89
69982;BME280;57319;56.274;43.980;2024-02-23T10:02:43;100943.16;;;-3.46;79.69
69982;BME280;57319;56.274;43.980;2024-02-23T10:05:13;100948.78;;;-3.63;76.97
69982;BME280;57319;56.274;43.980;2024-02-23T10:07:39;100947.53;;;-3.43;80.02
69982;BME280;57319;56.274;43.980;2024-02-23T10:10:08;100946.94;;;-3.79;75.84
69982;BME280;57319;56.274;43.980;2024-02-23T10:12:36;100948.69;;;-3.65;76.60
69982;BME280;57319;56.274;43.980;2024-02-23T10:15:03;100942.97;;;-3.49;78.72
69982;BME280;57319;56.274;43.980;2024-02-23T10:17:31;100947.72;;;-3.40;78.11
69982;BME280;57319;56.274;43.980;2024-02-23T10:19:57;100959.13;;;-3.45;77.61
69982;BME280;57319;56.274;43.980;2024-02-23T10:22:23;100954.00;;;-3.73;76.20
69982;BME280;57319;56.274;43.980;2024-02-23T10:24:53;100951.41;;;-3.75;79.84
69982;BME280;57319;56.274;43.980;2024-02-23T10:27:21;100954.34;;;-3.81;80.48
69982;BME280;57319;56.274;43.980;2024-02-23T10:29:51;100949.31;;;-3.81;79.99
69982;BME280;57319;56.274;43.980;2024-02-23T10:32:18;100950.03;;;-3.83;80.20
69982;BME280;57319;56.274;43.980;2024-02-23T10:34:47;100956.59;;;-4.24;75.63
69982;BME280;57319;56.274;43.980;2024-02-23T10:37:14;100953.78;;;-3.90;81.04
69982;BME280;57319;56.274;43.980;2024-02-23T10:39:39;100956.69;;;-3.84;80.68
69982;BME280;57319;56.274;43.980;2024-02-23T10:42:09;100958.03;;;-3.89;81.23
69982;BME280;57319;56.274;43.980;2024-02-23T10:44:35;100957.03;;;-4.04;78.98
69982;BME280;57319;56.274;43.980;2024-02-23T10:47:02;100956.75;;;-4.09;80.80
69982;BME280;57319;56.274;43.980;2024-02-23T10:49:30;100964.19;;;-4.11;80.34
69982;BME280;57319;56.274;43.980;2024-02-23T10:51:57;100973.16;;;-4.14;80.75
69982;BME280;57319;56.274;43.980;2024-02-23T10:54:22;100975.97;;;-4.10;82.44
69982;BME280;57319;56.274;43.980;2024-02-23T10:56:51;100978.41;;;-4.11;82.49
69982;BME280;57319;56.274;43.980;2024-02-23T10:59:18;100981.41;;;-4.42;78.32
69982;BME280;57319;56.274;43.980;2024-02-23T11:01:49;100978.25;;;-4.26;81.60
69982;BME280;57319;56.274;43.980;2024-02-23T11:04:16;100988.56;;;-4.35;80.77
69982;BME280;57319;56.274;43.980;2024-02-23T11:06:42;100985.41;;;-4.32;82.68
69982;BME280;57319;56.274;43.980;2024-02-23T11:09:08;100994.09;;;-4.52;81.80
69982;BME280;57319;56.274;43.980;2024-02-23T11:11:37;100986.44;;;-4.42;83.50
69982;BME280;57319;56.274;43.980;2024-02-23T11:14:07;100994.69;;;-4.31;83.88
69982;BME280;57319;56.274;43.980;2024-02-23T11:16:38;100994.78;;;-4.30;83.05
69982;BME280;57319;56.274;43.980;2024-02-23T11:19:06;100989.00;;;-4.29;83.89
69982;BME280;57319;56.274;43.980;2024-02-23T11:21:37;100997.41;;;-4.28;82.85
69982;BME280;57319;56.274;43.980;2024-02-23T11:24:06;100996.38;;;-4.18;84.15
69982;BME280;57319;56.274;43.980;2024-02-23T11:26:32;100985.06;;;-4.12;83.79
69982;BME280;57319;56.274;43.980;2024-02-23T11:29:11;100985.59;;;-4.04;84.00
69982;BME280;57319;56.274;43.980;2024-02-23T11:31:44;100989.34;;;-4.11;82.93
69982;BME280;57319;56.274;43.980;2024-02-23T11:34:11;100993.34;;;-4.26;80.93
69982;BME280;57319;56.274;43.980;2024-02-23T11:36:38;100990.41;;;-4.07;81.61
69982;BME280;57319;56.274;43.980;2024-02-23T11:39:04;101001.53;;;-4.03;77.67
69982;BME280;57319;56.274;43.980;2024-02-23T11:41:30;101005.19;;;-3.73;81.52
69982;BME280;57319;56.274;43.980;2024-02-23T11:43:56;101004.66;;;-3.55;82.26
69982;BME280;57319;56.274;43.980;2024-02-23T11:46:23;101004.06;;;-3.51;82.28
69982;BME280;57319;56.274;43.980;2024-02-23T11:48:49;101002.38;;;-3.64;79.47
69982;BME280;57319;56.274;43.980;2024-02-23T11:51:22;100998.63;;;-3.58;81.68
69982;BME280;57319;56.274;43.980;2024-02-23T11:53:49;100994.47;;;-4.34;76.64
69982;BME280;57319;56.274;43.980;2024-02-23T11:56:15;100996.41;;;-4.30;76.83
69982;BME280;57319;56.274;43.980;2024-02-23T11:58:41;100997.88;;;-4.71;76.85
69982;BME280;57319;56.274;43.980;2024-02-23T12:01:07;100996.47;;;-4.17;80.84
69982;BME280;57319;56.274;43.980;2024-02-23T12:03:33;100999.41;;;-3.97;81.64
69982;BME280;57319;56.274;43.980;2024-02-23T12:06:01;101003.63;;;-3.84;83.42
69982;BME280;57319;56.274;43.980;2024-02-23T12:08:29;101007.31;;;-3.79;83.18
69982;BME280;57319;56.274;43.980;2024-02-23T12:10:56;101011.06;;;-4.24;77.98
69982;BME280;57319;56.274;43.980;2024-02-23T12:13:22;101007.34;;;-4.04;79.40
69982;BME280;57319;56.274;43.980;2024-02-23T12:15:49;101013.81;;;-3.69;82.56
69982;BME280;57319;56.274;43.980;2024-02-23T12:18:18;101015.69;;;-3.92;80.03
69982;BME280;57319;56.274;43.980;2024-02-23T12:20:49;101014.56;;;-3.84;83.52
69982;BME280;57319;56.274;43.980;2024-02-23T12:23:15;101018.38;;;-4.02;83.45
69982;BME280;57319;56.274;43.980;2024-02-23T12:25:56;101008.84;;;-4.20;84.19
69982;BME280;57319;56.274;43.980;2024-02-23T12:28:22;101012.97;;;-4.46;83.71
69982;BME280;57319;56.274;43.980;2024-02-23T12:30:59;101024.75;;;-4.70;83.65
69982;BME280;57319;56.274;43.980;2024-02-23T12:33:27;101010.94;;;-5.12;80.76
69982;BME280;57319;56.274;43.980;2024-02-23T12:35:54;101017.53;;;-4.77;84.71